Portada
METAR-TAF:

METAR-TAF

Aeroports :

Zahedan, Iran

latitud: 29-28N, longitud: 060-53E, altitud: 1370 m

Observació

L'informe es va fer fa 54 minuts, a les 19:00 UTC
Vent 4 kt del Nord
Temperatura 27°C
Humitat 14%
Pressió 1015 hPa
Visibilitat 10 km o més
sense núvols per sota de 1500 mi sense presència de cumulonimbus.

METAR: OIZH 251900Z 01004KT CAVOK 27/M03 Q1015 A2998

Hora: 00:24 (19:54 UTC)

Pronòstic

L'informe es va fer fa 2 hores i 24 minuts, a les 17:30 UTC
Pronòstic vàlid del 25 a les 18 UTC al 26 a les 24 UTC
Vent 10 kt del Nord/Nord-Est
Visibilitat: 7000 m
Evolucionant progressivament
l' 26 a les 05 UTC al 26 a les 07 UTC
Vent 14 kt del Nord/Nord-Est
Temporalment
l' 26 a les 07 UTC al 26 a les 15 UTC
Vent 16 kt del Nord/Nord-Est amb ràfegues de 24 kt
Visibilitat: 3000 m
sorra

TAF: OIZH 251730Z 2518/2624 03010KT 7000 NSC BECMG 2605/2607 03014KT TEMPO 2607/2615 03016G24KT 3000 SA

Observacions i pronòstics meteorològics de més de 4000 aeroports (METAR i TAF).

Les estacions disponibles són els punts grocs i vermells al mapa.

Posi el ratolí al punt desitjat per veure el nom de l'estació.

Feu clic per veure les observacions i els pronòstics meteorològics.

Per canviar el mapa: feu clic els botons verds amb una creu de color negre per apropar; al botó verd amb un guió per allunyar la imatge; o en les fletxes verdes per a mapes adjacents.


METAR-TAF: